Time;durP1;ratioP1;P1;durP2;ratioP2;P2;SDS_P1;SDS_P2;PMS_P1;PMS_P2;Temp;Humidity;BMP_temperature;BMP_pressure;BME280_temperature;BME280_humidity;BME280_pressure;Samples;Min_cycle;Max_cycle;Signal;HPM_P1;HPM_P2
2021/07/23 00:00:54;;;;;;;14.98;13.45;;;22.30;63.30;;;;;;5041759;28;20192;-86
2021/07/23 00:03:20;;;;;;;13.30;12.00;;;22.30;62.80;;;;;;5056307;28;20209;-87
2021/07/23 00:05:46;;;;;;;13.80;12.57;;;22.20;63.20;;;;;;5026581;28;20276;-86
2021/07/23 00:08:12;;;;;;;13.57;12.27;;;22.10;63.70;;;;;;5063982;28;20196;-84
2021/07/23 00:10:38;;;;;;;14.00;12.80;;;22.20;63.80;;;;;;5040925;28;20177;-84
2021/07/23 00:13:04;;;;;;;13.73;12.43;;;22.20;63.70;;;;;;5048501;28;20180;-85
2021/07/23 00:15:29;;;;;;;13.70;12.50;;;22.30;63.50;;;;;;5060045;28;20192;-88
2021/07/23 00:17:55;;;;;;;14.63;13.32;;;22.20;63.40;;;;;;5070703;28;20200;-87
2021/07/23 00:20:21;;;;;;;14.27;13.00;;;22.20;63.30;;;;;;5066265;28;20224;-87
2021/07/23 00:22:47;;;;;;;13.60;12.48;;;22.20;63.50;;;;;;5048570;28;20211;-88
2021/07/23 00:25:13;;;;;;;13.65;12.30;;;22.10;63.20;;;;;;5037442;28;20184;-87
2021/07/23 00:27:38;;;;;;;14.20;12.80;;;21.80;64.70;;;;;;5065769;28;20208;-87
2021/07/23 00:30:06;;;;;;;13.85;12.50;;;21.80;64.90;;;;;;5063340;28;20239;-85
2021/07/23 00:32:33;;;;;;;13.55;12.25;;;21.80;64.60;;;;;;5061941;28;20181;-86
2021/07/23 00:34:58;;;;;;;14.30;13.00;;;21.90;64.40;;;;;;5057127;28;20189;-87
2021/07/23 00:37:24;;;;;;;14.65;13.25;;;21.60;65.40;;;;;;5044552;28;20234;-85
2021/07/23 00:39:50;;;;;;;13.70;12.40;;;21.40;66.80;;;;;;5015489;28;20176;-86
2021/07/23 00:42:15;;;;;;;14.18;12.70;;;21.10;67.90;;;;;;5068067;28;20182;-85
2021/07/23 00:44:41;;;;;;;13.93;12.70;;;21.20;67.20;;;;;;5068983;28;20215;-88
2021/07/23 00:47:07;;;;;;;14.10;12.80;;;21.30;66.90;;;;;;5069771;28;20208;-87
2021/07/23 00:49:33;;;;;;;14.57;13.27;;;21.30;67.00;;;;;;5052148;28;20181;-87
2021/07/23 00:51:59;;;;;;;13.52;12.23;;;21.30;67.00;;;;;;5087577;28;20179;-87
2021/07/23 00:54:26;;;;;;;14.23;12.90;;;21.30;66.50;;;;;;5082790;28;20198;-86
2021/07/23 00:56:52;;;;;;;13.13;11.93;;;21.40;66.40;;;;;;5066249;28;20218;-85
2021/07/23 00:59:18;;;;;;;14.00;12.60;;;21.30;66.60;;;;;;5066362;28;20187;-85
2021/07/23 01:01:44;;;;;;;12.35;11.25;;;21.40;66.80;;;;;;5066059;28;20237;-86
2021/07/23 01:04:10;;;;;;;14.30;12.77;;;21.50;66.50;;;;;;5068788;28;20314;-85
2021/07/23 01:06:36;;;;;;;13.60;12.32;;;21.30;66.50;;;;;;5069069;28;20197;-87
2021/07/23 01:09:03;;;;;;;12.80;11.70;;;21.30;66.70;;;;;;5068143;28;20752;-87
2021/07/23 01:11:29;;;;;;;12.95;11.50;;;21.40;66.30;;;;;;5066375;28;20206;-86
2021/07/23 01:13:55;;;;;;;13.63;12.30;;;21.50;66.20;;;;;;5063497;28;20189;-85
2021/07/23 01:16:21;;;;;;;13.65;12.45;;;21.50;65.80;;;;;;5029130;28;20218;-86
2021/07/23 01:18:47;;;;;;;13.65;12.35;;;21.50;65.80;;;;;;5045276;28;20177;-86
2021/07/23 01:21:15;;;;;;;12.88;11.52;;;21.60;65.60;;;;;;5044579;28;20256;-87
2021/07/23 01:23:41;;;;;;;13.10;11.85;;;21.40;66.40;;;;;;5044503;28;20310;-88
2021/07/23 01:26:07;;;;;;;11.70;10.70;;;21.30;66.50;;;;;;5045028;28;20236;-86
2021/07/23 01:28:35;;;;;;;12.77;11.68;;;21.20;66.70;;;;;;5062181;28;20192;-87
2021/07/23 01:31:01;;;;;;;14.27;12.98;;;21.20;66.90;;;;;;5046409;28;20187;-87
2021/07/23 01:33:30;;;;;;;12.85;11.50;;;21.30;66.60;;;;;;5063021;28;20329;-87
2021/07/23 01:35:57;;;;;;;11.98;10.93;;;21.30;66.70;;;;;;5044638;28;20187;-87
2021/07/23 01:38:29;;;;;;;12.63;11.52;;;21.30;66.60;;;;;;5062214;28;20190;-87
2021/07/23 01:40:56;;;;;;;11.88;10.73;;;21.40;66.30;;;;;;5061338;28;20176;-87
2021/07/23 01:43:23;;;;;;;12.95;11.60;;;21.40;65.90;;;;;;5055951;28;20200;-87
2021/07/23 01:45:48;;;;;;;12.68;11.57;;;21.40;66.90;;;;;;5043573;28;20268;-87
2021/07/23 01:48:14;;;;;;;12.73;11.55;;;21.40;66.20;;;;;;5043296;28;20227;-87
2021/07/23 01:50:40;;;;;;;11.23;10.23;;;21.30;66.70;;;;;;5038674;28;20862;-85
2021/07/23 01:53:06;;;;;;;12.13;11.07;;;21.30;66.80;;;;;;5049136;28;20195;-88
2021/07/23 01:55:31;;;;;;;12.13;10.93;;;21.30;66.30;;;;;;5082988;28;20190;-85
2021/07/23 01:57:58;;;;;;;12.80;11.60;;;21.40;65.90;;;;;;5062475;28;20215;-87
2021/07/23 02:00:24;;;;;;;13.05;11.77;;;21.30;66.30;;;;;;5050143;28;20219;-87
2021/07/23 02:02:49;;;;;;;13.95;11.65;;;21.10;67.50;;;;;;5041825;28;20199;-87
2021/07/23 02:05:15;;;;;;;13.07;11.88;;;20.80;68.40;;;;;;5024440;28;20184;-87
2021/07/23 02:07:41;;;;;;;12.55;11.27;;;20.70;69.00;;;;;;5042084;28;20211;-87
2021/07/23 02:10:08;;;;;;;12.73;11.52;;;20.70;68.50;;;;;;5024710;28;20239;-87
2021/07/23 02:12:34;;;;;;;12.77;11.65;;;20.40;69.50;;;;;;5055821;28;20179;-87
2021/07/23 02:15:00;;;;;;;11.93;10.75;;;20.30;70.40;;;;;;5057302;28;20278;-87
2021/07/23 02:17:26;;;;;;;12.88;11.65;;;20.40;69.90;;;;;;5053970;28;20861;-87
2021/07/23 02:19:51;;;;;;;12.88;11.65;;;20.50;69.20;;;;;;5060983;28;20192;-87
2021/07/23 02:22:17;;;;;;;12.85;11.73;;;20.70;68.80;;;;;;5069927;28;20223;-87
2021/07/23 02:24:43;;;;;;;13.43;12.18;;;20.80;68.00;;;;;;5063504;28;20270;-88
2021/07/23 02:27:11;;;;;;;11.85;10.75;;;20.80;68.00;;;;;;5062272;28;20202;-88
2021/07/23 02:29:37;;;;;;;13.68;11.30;;;20.80;68.00;;;;;;5061801;28;20187;-87
2021/07/23 02:32:03;;;;;;;12.07;10.88;;;20.90;67.90;;;;;;5060745;28;20183;-88
2021/07/23 02:34:29;;;;;;;12.32;11.13;;;21.00;67.50;;;;;;5061042;28;20179;-88
2021/07/23 02:36:56;;;;;;;12.43;11.27;;;21.00;67.40;;;;;;5061117;28;20197;-88
2021/07/23 02:39:24;;;;;;;12.90;11.70;;;20.90;67.50;;;;;;5060607;28;20198;-87
2021/07/23 02:41:49;;;;;;;13.95;12.40;;;20.70;68.70;;;;;;5059930;28;20757;-87
2021/07/23 02:44:15;;;;;;;13.00;11.55;;;20.50;69.80;;;;;;5060932;28;20214;-88
2021/07/23 02:46:41;;;;;;;14.18;12.23;;;20.50;68.70;;;;;;5060750;28;20202;-88
2021/07/23 02:49:07;;;;;;;13.73;12.32;;;20.50;68.70;;;;;;5060455;28;20177;-88
2021/07/23 02:51:32;;;;;;;13.63;12.25;;;20.60;69.00;;;;;;5074018;28;20182;-88
2021/07/23 02:53:58;;;;;;;13.32;11.93;;;20.60;68.80;;;;;;5062420;28;20187;-88
2021/07/23 02:56:25;;;;;;;11.93;10.93;;;20.70;68.80;;;;;;5080602;28;20216;-88
2021/07/23 02:58:51;;;;;;;12.68;11.48;;;20.70;68.40;;;;;;5080490;28;20214;-88
2021/07/23 03:01:17;;;;;;;11.77;10.77;;;20.70;68.10;;;;;;5079150;28;20186;-87
2021/07/23 03:03:42;;;;;;;12.90;11.52;;;20.70;67.90;;;;;;5081082;28;20198;-87
2021/07/23 03:06:08;;;;;;;13.05;11.85;;;20.80;67.60;;;;;;5073134;28;20214;-87
2021/07/23 03:08:34;;;;;;;12.63;11.27;;;20.80;67.60;;;;;;5060375;28;20190;-88
2021/07/23 03:11:02;;;;;;;12.65;11.48;;;20.80;67.20;;;;;;5060118;28;20246;-88
2021/07/23 03:13:28;;;;;;;12.68;11.57;;;20.80;67.50;;;;;;5060837;28;20210;-87
2021/07/23 03:15:54;;;;;;;12.23;11.02;;;20.80;67.00;;;;;;5060439;28;20183;-88
2021/07/23 03:18:19;;;;;;;12.60;11.50;;;20.70;67.20;;;;;;5042559;28;20184;-88
2021/07/23 03:20:45;;;;;;;12.30;11.20;;;20.60;67.30;;;;;;5059015;28;20183;-87
2021/07/23 03:23:11;;;;;;;12.40;11.30;;;20.60;67.90;;;;;;5049918;28;20842;-87
2021/07/23 03:25:37;;;;;;;12.20;11.00;;;20.60;68.00;;;;;;5039802;28;20207;-88
2021/07/23 03:28:03;;;;;;;12.68;11.48;;;20.60;67.90;;;;;;5039800;28;20199;-88
2021/07/23 03:30:28;;;;;;;11.48;10.48;;;20.50;68.00;;;;;;5039309;28;20281;-88
2021/07/23 03:32:54;;;;;;;12.57;11.48;;;20.60;67.80;;;;;;5039099;28;20183;-88
2021/07/23 03:35:20;;;;;;;12.30;11.20;;;20.60;67.70;;;;;;5038538;28;20202;-88
2021/07/23 03:37:46;;;;;;;12.10;10.80;;;20.50;67.90;;;;;;5039265;28;20200;-87
2021/07/23 03:40:12;;;;;;;11.88;10.85;;;20.50;68.20;;;;;;5040247;28;20187;-88
2021/07/23 03:42:37;;;;;;;13.00;11.70;;;20.50;67.90;;;;;;5051942;28;20205;-88
2021/07/23 03:45:04;;;;;;;11.98;10.88;;;20.50;67.60;;;;;;5060574;28;20191;-87
2021/07/23 03:47:30;;;;;;;11.98;10.82;;;20.50;67.80;;;;;;5041172;28;20217;-87
2021/07/23 03:49:55;;;;;;;11.50;10.40;;;20.50;67.80;;;;;;5061732;28;20599;-88
2021/07/23 03:52:21;;;;;;;13.48;11.50;;;20.40;67.90;;;;;;5078911;28;20819;-88
2021/07/23 03:54:46;;;;;;;12.15;10.95;;;20.40;68.30;;;;;;5074325;28;20556;-88
2021/07/23 03:57:12;;;;;;;11.73;10.48;;;20.40;67.90;;;;;;5028935;28;20264;-88
2021/07/23 03:59:38;;;;;;;12.38;11.02;;;20.40;67.80;;;;;;5036717;28;20183;-88
2021/07/23 04:02:03;;;;;;;13.32;11.32;;;20.30;68.00;;;;;;5036453;28;20186;-88
2021/07/23 04:04:30;;;;;;;12.30;11.20;;;20.30;68.40;;;;;;5018062;28;20550;-87
2021/07/23 04:06:56;;;;;;;11.82;10.63;;;20.30;68.30;;;;;;5035662;28;20212;-87
2021/07/23 04:09:22;;;;;;;11.77;10.57;;;20.30;68.20;;;;;;5019991;28;20810;-89
2021/07/23 04:11:50;;;;;;;11.93;10.73;;;20.20;68.40;;;;;;5018302;28;20729;-87
2021/07/23 04:14:16;;;;;;;12.15;10.95;;;20.20;68.50;;;;;;5035875;28;20174;-85
2021/07/23 04:16:49;;;;;;;12.32;11.23;;;20.20;68.50;;;;;;5037884;28;20197;-87
2021/07/23 04:19:15;;;;;;;11.98;10.88;;;20.10;69.20;;;;;;5050217;28;20195;-87
2021/07/23 04:21:40;;;;;;;12.25;10.98;;;19.90;69.50;;;;;;5041612;28;20542;-84
2021/07/23 04:24:06;;;;;;;12.43;11.32;;;19.90;69.60;;;;;;5021977;28;20295;-84
2021/07/23 04:26:33;;;;;;;12.60;11.25;;;19.90;69.80;;;;;;5027914;28;20292;-86
2021/07/23 04:28:58;;;;;;;13.35;10.98;;;19.80;70.20;;;;;;5055109;28;20275;-85
2021/07/23 04:31:25;;;;;;;12.77;11.35;;;19.90;70.50;;;;;;5055717;28;20188;-86
2021/07/23 04:33:51;;;;;;;12.27;11.13;;;20.00;70.30;;;;;;5056972;28;20197;-85
2021/07/23 04:36:16;;;;;;;11.90;10.73;;;19.90;70.20;;;;;;5032266;28;20212;-85
2021/07/23 04:38:42;;;;;;;14.57;11.65;;;19.90;70.40;;;;;;5039579;28;20189;-86
2021/07/23 04:41:08;;;;;;;11.55;10.55;;;19.80;70.30;;;;;;5045932;28;20189;-86
2021/07/23 04:43:40;;;;;;;12.13;10.70;;;19.60;71.30;;;;;;5037855;28;20270;-85
2021/07/23 04:46:06;;;;;;;11.30;10.32;;;19.70;71.40;;;;;;5053493;28;20197;-86
2021/07/23 04:48:33;;;;;;;11.27;10.18;;;19.80;71.30;;;;;;5047035;28;20237;-87
2021/07/23 04:51:02;;;;;;;11.10;10.02;;;19.90;70.90;;;;;;5044222;28;20212;-86
2021/07/23 04:53:28;;;;;;;12.43;10.90;;;20.00;70.60;;;;;;5046034;28;20831;-86
2021/07/23 04:55:56;;;;;;;11.98;10.98;;;20.10;70.50;;;;;;5040116;28;20192;-86
2021/07/23 04:58:21;;;;;;;15.50;11.55;;;20.00;70.90;;;;;;5032883;28;20577;-85
2021/07/23 05:00:48;;;;;;;13.27;11.93;;;20.00;71.60;;;;;;5004671;28;20252;-84
2021/07/23 05:03:13;;;;;;;10.45;9.43;;;20.00;71.30;;;;;;5048178;28;20231;-85
2021/07/23 05:05:45;;;;;;;13.48;11.18;;;20.00;71.20;;;;;;5059540;28;20173;-86
2021/07/23 05:08:11;;;;;;;11.70;10.60;;;20.00;72.00;;;;;;5060555;28;20184;-85
2021/07/23 05:10:40;;;;;;;12.75;11.55;;;19.90;72.70;;;;;;5030421;28;20219;-84
2021/07/23 05:13:09;;;;;;;12.07;10.90;;;19.80;73.10;;;;;;5053285;28;20886;-83
2021/07/23 05:15:38;;;;;;;11.55;10.55;;;19.60;74.30;;;;;;5047546;28;20212;-86
2021/07/23 05:18:04;;;;;;;13.10;11.55;;;19.60;74.60;;;;;;5043218;28;20213;-87
2021/07/23 05:20:30;;;;;;;11.85;10.70;;;19.60;74.80;;;;;;5048248;28;20654;-85
2021/07/23 05:22:56;;;;;;;12.40;10.80;;;19.70;74.50;;;;;;5051375;28;20226;-85
2021/07/23 05:25:22;;;;;;;13.80;12.18;;;19.80;74.20;;;;;;5057748;28;20207;-87
2021/07/23 05:27:47;;;;;;;13.00;11.73;;;19.90;74.00;;;;;;5059056;28;20204;-86
2021/07/23 05:30:14;;;;;;;13.20;12.02;;;20.00;73.50;;;;;;5041099;28;20192;-87
2021/07/23 05:32:40;;;;;;;14.27;12.98;;;20.10;73.00;;;;;;5045707;28;20176;-84
2021/07/23 05:35:07;;;;;;;13.77;12.07;;;20.00;73.10;;;;;;5055219;28;20668;-86
2021/07/23 05:37:33;;;;;;;14.60;13.20;;;20.00;73.30;;;;;;5050639;28;20205;-85
2021/07/23 05:39:58;;;;;;;15.02;13.45;;;20.00;72.80;;;;;;5049070;28;20596;-86
2021/07/23 05:42:24;;;;;;;14.80;12.93;;;20.00;73.00;;;;;;5050753;28;20612;-86
2021/07/23 05:44:50;;;;;;;14.63;13.15;;;20.00;73.20;;;;;;5050866;28;20224;-85
2021/07/23 05:47:15;;;;;;;13.93;12.50;;;19.90;72.80;;;;;;5045596;28;20216;-85
2021/07/23 05:49:41;;;;;;;14.00;12.70;;;19.90;73.80;;;;;;5046733;28;20188;-86
2021/07/23 05:52:07;;;;;;;15.57;12.57;;;19.80;73.80;;;;;;5035908;28;20184;-85
2021/07/23 05:54:32;;;;;;;14.50;13.05;;;19.90;74.30;;;;;;5053961;28;20188;-86
2021/07/23 05:56:58;;;;;;;15.45;12.65;;;19.90;73.80;;;;;;5050263;28;20251;-86
2021/07/23 05:59:24;;;;;;;15.55;13.23;;;20.00;73.80;;;;;;5045324;28;20196;-86
2021/07/23 06:01:50;;;;;;;16.60;12.40;;;20.20;73.00;;;;;;5049636;28;20193;-84
2021/07/23 06:04:15;;;;;;;17.05;11.90;;;20.20;72.50;;;;;;5039430;28;20288;-86
2021/07/23 06:06:41;;;;;;;14.93;13.30;;;20.20;72.60;;;;;;5051572;28;20200;-84
2021/07/23 06:09:06;;;;;;;14.98;13.27;;;20.10;73.00;;;;;;5062629;28;20192;-86
2021/07/23 06:11:33;;;;;;;14.75;12.98;;;20.20;73.40;;;;;;5054396;28;20204;-85
2021/07/23 06:13:59;;;;;;;15.93;13.13;;;20.20;73.00;;;;;;5055997;28;20185;-87
2021/07/23 06:16:25;;;;;;;16.95;12.48;;;20.10;73.50;;;;;;5035144;28;20243;-86
2021/07/23 06:18:50;;;;;;;15.70;13.00;;;20.20;73.50;;;;;;5057243;28;20189;-86
2021/07/23 06:21:16;;;;;;;13.77;12.20;;;20.30;73.30;;;;;;5039855;28;20187;-86
2021/07/23 06:23:42;;;;;;;15.00;13.50;;;20.30;73.60;;;;;;5049277;28;20236;-85
2021/07/23 06:26:08;;;;;;;13.60;12.18;;;20.40;72.20;;;;;;5054509;28;20300;-88
2021/07/23 06:28:34;;;;;;;14.65;12.68;;;20.40;72.10;;;;;;5064145;28;20187;-90
2021/07/23 06:31:00;;;;;;;14.88;12.43;;;20.60;71.70;;;;;;5059957;28;20188;-87
2021/07/23 06:33:26;;;;;;;13.52;12.10;;;20.70;71.30;;;;;;5052714;28;20534;-87
2021/07/23 06:35:51;;;;;;;14.10;12.15;;;20.80;71.00;;;;;;5047370;28;20196;-87
2021/07/23 06:38:17;;;;;;;14.88;13.07;;;20.90;70.80;;;;;;5049930;28;20189;-85
2021/07/23 06:40:43;;;;;;;15.48;12.18;;;21.00;69.60;;;;;;5059073;28;20720;-88
2021/07/23 06:43:08;;;;;;;15.80;12.48;;;21.00;69.30;;;;;;5052064;28;20216;-88
2021/07/23 06:45:44;;;;;;;13.75;12.35;;;21.10;68.50;;;;;;5050363;28;20212;-89
2021/07/23 06:48:09;;;;;;;13.30;11.90;;;21.20;68.30;;;;;;5034628;28;20185;-88
2021/07/23 06:50:35;;;;;;;14.52;13.02;;;21.30;69.20;;;;;;5052360;28;20181;-86
2021/07/23 06:53:04;;;;;;;13.43;12.15;;;21.30;68.40;;;;;;5050089;28;20185;-86
2021/07/23 06:55:30;;;;;;;14.25;12.13;;;21.30;67.50;;;;;;5034715;28;20274;-86
2021/07/23 06:57:58;;;;;;;15.18;12.38;;;21.30;67.00;;;;;;5048039;28;20258;-88
2021/07/23 07:00:24;;;;;;;14.35;12.95;;;21.20;67.30;;;;;;5044317;28;20185;-85
2021/07/23 07:02:50;;;;;;;12.55;11.30;;;21.30;67.10;;;;;;5044980;28;20211;-84
2021/07/23 07:05:16;;;;;;;13.68;12.27;;;21.40;67.50;;;;;;5046951;28;20613;-87
2021/07/23 07:07:42;;;;;;;13.60;12.30;;;21.50;66.90;;;;;;5047743;28;20263;-87
2021/07/23 07:10:08;;;;;;;14.07;12.65;;;21.60;65.90;;;;;;5044268;28;20180;-88
2021/07/23 07:12:34;;;;;;;12.95;11.65;;;21.70;65.60;;;;;;5050718;28;20179;-88
2021/07/23 07:14:59;;;;;;;12.32;11.13;;;21.70;65.60;;;;;;5044237;28;20904;-89
2021/07/23 07:17:28;;;;;;;13.32;11.85;;;21.70;65.00;;;;;;5050759;28;20219;-86
2021/07/23 07:19:54;;;;;;;14.82;12.05;;;21.80;64.10;;;;;;5053348;28;20230;-87
2021/07/23 07:22:23;;;;;;;13.55;11.07;;;21.90;63.60;;;;;;5052430;28;20187;-87
2021/07/23 07:24:48;;;;;;;12.50;11.20;;;21.80;63.70;;;;;;5054934;28;20213;-85
2021/07/23 07:27:14;;;;;;;13.50;11.80;;;21.80;64.20;;;;;;5058762;28;20236;-85
2021/07/23 07:29:40;;;;;;;12.88;11.38;;;22.00;64.70;;;;;;5053395;28;20300;-85
2021/07/23 07:32:08;;;;;;;13.52;10.38;;;22.10;64.70;;;;;;5052713;28;20190;-85
2021/07/23 07:34:34;;;;;;;13.77;11.20;;;22.30;64.30;;;;;;5058962;28;20279;-85
2021/07/23 07:37:01;;;;;;;11.68;10.68;;;22.40;63.30;;;;;;5049603;28;20442;-87
2021/07/23 07:39:27;;;;;;;11.68;10.52;;;22.40;62.90;;;;;;5046072;28;20263;-87
2021/07/23 07:41:53;;;;;;;12.88;11.57;;;22.40;62.20;;;;;;5035352;28;20688;-85
2021/07/23 07:44:19;;;;;;;14.32;11.02;;;22.50;61.80;;;;;;5054261;28;20212;-86
2021/07/23 07:46:45;;;;;;;12.13;11.02;;;22.50;60.30;;;;;;5047000;28;20254;-86
2021/07/23 07:49:10;;;;;;;11.98;10.73;;;22.70;61.40;;;;;;5043809;28;20192;-85
2021/07/23 07:51:36;;;;;;;11.75;10.75;;;22.80;60.80;;;;;;5045792;28;20184;-85
2021/07/23 07:54:02;;;;;;;12.07;10.88;;;22.90;61.00;;;;;;5050676;28;20189;-85
2021/07/23 07:56:27;;;;;;;12.68;11.50;;;22.90;59.90;;;;;;5045708;28;20213;-85
2021/07/23 07:58:53;;;;;;;11.88;10.68;;;23.10;60.40;;;;;;5046875;28;20216;-83
2021/07/23 08:01:19;;;;;;;13.50;11.43;;;23.10;59.60;;;;;;5048268;28;20264;-82
2021/07/23 08:03:44;;;;;;;11.35;10.35;;;23.30;59.40;;;;;;5050523;28;20208;-84
2021/07/23 08:06:22;;;;;;;12.55;10.63;;;23.40;59.20;;;;;;5054556;28;20231;-84
2021/07/23 08:08:49;;;;;;;12.85;11.65;;;23.50;58.80;;;;;;5045562;28;20183;-85
2021/07/23 08:11:15;;;;;;;12.07;10.43;;;23.50;58.30;;;;;;5030824;28;20189;-86
2021/07/23 08:13:41;;;;;;;11.80;10.68;;;23.60;58.30;;;;;;5037348;28;20221;-85
2021/07/23 08:16:07;;;;;;;12.85;11.20;;;23.80;57.70;;;;;;5045004;28;20216;-85
2021/07/23 08:18:34;;;;;;;12.82;11.35;;;23.90;57.80;;;;;;5039921;28;20181;-84
2021/07/23 08:21:02;;;;;;;13.05;11.75;;;24.20;57.70;;;;;;5031589;28;20250;-85
2021/07/23 08:23:29;;;;;;;12.35;11.20;;;24.10;56.60;;;;;;5041492;28;21653;-86
2021/07/23 08:25:54;;;;;;;11.82;10.68;;;24.20;56.40;;;;;;5044113;28;20180;-83
2021/07/23 08:28:20;;;;;;;12.60;11.10;;;24.20;56.10;;;;;;5041105;28;20185;-86
2021/07/23 08:30:45;;;;;;;12.10;11.00;;;24.30;56.90;;;;;;5030665;28;20195;-86
2021/07/23 08:33:11;;;;;;;12.45;11.13;;;24.60;55.50;;;;;;5047157;28;20667;-86
2021/07/23 08:35:38;;;;;;;12.68;11.50;;;24.70;55.00;;;;;;5048254;28;20276;-87
2021/07/23 08:38:04;;;;;;;12.20;11.10;;;24.90;53.60;;;;;;5041398;28;20205;-85
2021/07/23 08:40:30;;;;;;;12.65;11.45;;;24.80;53.70;;;;;;5045996;28;20194;-86
2021/07/23 08:42:56;;;;;;;12.57;11.38;;;25.00;54.20;;;;;;5046360;28;20188;-86
2021/07/23 08:45:22;;;;;;;20.40;12.43;;;24.80;53.70;;;;;;5045704;28;20177;-86
2021/07/23 08:47:48;;;;;;;11.90;10.70;;;24.90;54.60;;;;;;5045955;28;20211;-84
2021/07/23 08:50:14;;;;;;;12.55;11.40;;;25.00;53.90;;;;;;5050729;28;20195;-86
2021/07/23 08:52:41;;;;;;;12.15;10.90;;;25.10;54.10;;;;;;5044405;28;20189;-83
2021/07/23 08:55:08;;;;;;;16.42;11.05;;;25.20;53.30;;;;;;5055343;28;20192;-87
2021/07/23 08:57:34;;;;;;;13.55;11.70;;;25.20;53.70;;;;;;5045874;28;20204;-85
2021/07/23 08:59:59;;;;;;;11.80;10.70;;;25.40;53.70;;;;;;5046611;28;20238;-86
2021/07/23 09:02:25;;;;;;;12.32;10.77;;;25.60;52.20;;;;;;5044597;28;20188;-86
2021/07/23 09:04:53;;;;;;;12.20;11.10;;;25.70;51.20;;;;;;5050062;28;20211;-88
2021/07/23 09:07:19;;;;;;;11.90;10.93;;;25.80;48.60;;;;;;5028948;28;20212;-85
2021/07/23 09:09:54;;;;;;;11.30;10.32;;;25.90;50.70;;;;;;5045788;28;20181;-86
2021/07/23 09:12:20;;;;;;;12.80;11.25;;;26.10;50.60;;;;;;5034712;28;20204;-85
2021/07/23 09:14:46;;;;;;;12.25;11.15;;;26.30;49.90;;;;;;5044222;28;20603;-85
2021/07/23 09:17:11;;;;;;;12.52;11.10;;;26.20;50.40;;;;;;5043327;28;20609;-86
2021/07/23 09:19:38;;;;;;;12.95;11.55;;;26.20;49.20;;;;;;5046541;28;20216;-85
2021/07/23 09:22:05;;;;;;;12.63;11.43;;;26.20;51.10;;;;;;5034193;28;20196;-89
2021/07/23 09:24:50;;;;;;;12.40;11.32;;;26.30;49.10;;;;;;5054455;28;20207;-88
2021/07/23 09:27:35;;;;;;;12.15;11.05;;;26.40;46.90;;;;;;5039903;28;20259;-87
2021/07/23 09:30:02;;;;;;;12.10;11.00;;;26.60;51.00;;;;;;5045793;28;20254;-89
2021/07/23 09:32:28;;;;;;;11.82;10.60;;;26.90;49.90;;;;;;5044644;28;20248;-87
2021/07/23 09:35:08;;;;;;;12.43;10.93;;;27.10;47.40;;;;;;5049457;28;20176;-88
2021/07/23 09:37:51;;;;;;;14.15;11.60;;;27.30;47.60;;;;;;5048632;28;20231;-87
2021/07/23 09:40:16;;;;;;;12.00;10.13;;;27.50;47.00;;;;;;5043593;28;20249;-87
2021/07/23 09:42:42;;;;;;;10.43;9.43;;;27.50;45.10;;;;;;5032361;28;20185;-86
2021/07/23 09:45:08;;;;;;;10.98;9.90;;;27.60;43.50;;;;;;5058884;28;20228;-87
2021/07/23 09:47:34;;;;;;;11.05;10.02;;;27.50;43.40;;;;;;5053849;28;20234;-88
2021/07/23 09:50:02;;;;;;;12.07;10.88;;;27.60;43.60;;;;;;5038497;28;20243;-87
2021/07/23 09:52:29;;;;;;;11.13;10.23;;;27.80;45.20;;;;;;5042972;28;20177;-87
2021/07/23 09:54:55;;;;;;;11.50;10.35;;;28.00;43.80;;;;;;5050791;28;20200;-87
2021/07/23 09:57:26;;;;;;;12.18;10.50;;;28.20;43.50;;;;;;5056559;28;20227;-88
2021/07/23 10:00:05;;;;;;;11.43;10.25;;;28.50;43.90;;;;;;5052095;28;20208;-87
2021/07/23 10:02:34;;;;;;;11.32;10.25;;;28.40;40.40;;;;;;5047832;28;20219;-86
2021/07/23 10:05:05;;;;;;;11.90;10.65;;;28.30;42.30;;;;;;5046585;28;20219;-88
2021/07/23 10:07:39;;;;;;;12.45;11.35;;;28.20;42.20;;;;;;5051780;28;20355;-88
2021/07/23 10:10:09;;;;;;;12.38;11.27;;;28.50;41.90;;;;;;5046787;28;20188;-88
2021/07/23 10:12:37;;;;;;;11.70;10.60;;;28.60;41.30;;;;;;5049236;28;20306;-85
2021/07/23 10:15:03;;;;;;;11.57;10.57;;;28.60;40.40;;;;;;5043258;28;20188;-86
2021/07/23 10:17:30;;;;;;;10.60;9.77;;;28.40;41.70;;;;;;5030820;28;20299;-86
2021/07/23 10:19:57;;;;;;;10.80;9.90;;;28.70;40.80;;;;;;5056593;28;20216;-85
2021/07/23 10:22:25;;;;;;;11.35;10.27;;;28.70;39.40;;;;;;5026192;28;20193;-87
2021/07/23 10:24:52;;;;;;;11.65;10.57;;;28.80;39.20;;;;;;5049302;28;20201;-86
2021/07/23 10:27:17;;;;;;;11.38;10.10;;;28.80;40.80;;;;;;5049903;28;20216;-87
2021/07/23 10:29:47;;;;;;;11.90;10.90;;;29.20;40.70;;;;;;5053830;28;20227;-85
2021/07/23 10:32:29;;;;;;;12.40;11.30;;;29.20;40.70;;;;;;5048225;28;20249;-88
2021/07/23 10:35:00;;;;;;;11.35;10.45;;;29.00;40.60;;;;;;5055038;28;20295;-89
2021/07/23 10:37:32;;;;;;;11.98;10.88;;;29.10;40.70;;;;;;5049756;28;20209;-89
2021/07/23 10:40:16;;;;;;;11.45;10.55;;;29.30;39.30;;;;;;5050551;28;20244;-89
2021/07/23 10:42:46;;;;;;;12.13;10.93;;;29.00;40.40;;;;;;5044495;28;20180;-88
2021/07/23 10:45:19;;;;;;;13.27;10.77;;;29.30;39.40;;;;;;5052033;28;20260;-89
2021/07/23 10:47:46;;;;;;;13.10;11.80;;;29.70;38.40;;;;;;5048342;28;20197;-89
2021/07/23 10:50:13;;;;;;;12.82;11.63;;;29.90;39.10;;;;;;5046522;28;20180;-87
2021/07/23 10:52:40;;;;;;;11.90;11.00;;;30.10;39.50;;;;;;5051005;28;20557;-88
2021/07/23 10:55:16;;;;;;;12.00;11.00;;;30.20;39.70;;;;;;5056344;28;20219;-89
2021/07/23 10:57:43;;;;;;;11.95;10.50;;;30.20;40.90;;;;;;5047113;28;20640;-89
2021/07/23 11:00:10;;;;;;;12.20;10.98;;;30.00;39.30;;;;;;5053424;28;20188;-89
2021/07/23 11:02:36;;;;;;;12.55;11.35;;;29.80;38.40;;;;;;5030180;28;20192;-88
2021/07/23 11:05:20;;;;;;;12.95;11.48;;;30.00;38.60;;;;;;5053947;28;20250;-88
2021/07/23 11:07:46;;;;;;;12.95;11.43;;;30.30;37.80;;;;;;5049259;28;20265;-89
2021/07/23 11:10:17;;;;;;;12.52;10.95;;;30.40;38.80;;;;;;5045960;28;20576;-88
2021/07/23 11:12:45;;;;;;;11.73;10.65;;;30.30;39.30;;;;;;5048251;28;20247;-90
2021/07/23 11:15:15;;;;;;;12.10;10.88;;;30.80;39.90;;;;;;5050449;28;20269;-88
2021/07/23 11:17:47;;;;;;;12.30;11.32;;;30.80;38.80;;;;;;5049783;28;20216;-91
2021/07/23 11:20:13;;;;;;;14.10;11.77;;;30.70;37.90;;;;;;5030803;28;20192;-91
2021/07/23 11:22:39;;;;;;;11.88;10.88;;;30.90;36.90;;;;;;5051360;28;20239;-90
2021/07/23 11:25:11;;;;;;;11.85;10.77;;;31.00;37.50;;;;;;5045690;28;20239;-91
2021/07/23 11:27:39;;;;;;;11.85;10.85;;;31.10;38.40;;;;;;5044485;28;20274;-91
2021/07/23 11:30:24;;;;;;;12.23;11.20;;;31.00;39.00;;;;;;5057375;28;20247;-91
2021/07/23 11:32:55;;;;;;;12.23;11.02;;;30.90;37.30;;;;;;5049135;28;20206;-89
2021/07/23 11:35:29;;;;;;;11.88;10.93;;;31.20;38.00;;;;;;5049648;28;20189;-90
2021/07/23 11:37:57;;;;;;;11.60;10.32;;;30.80;37.60;;;;;;5033400;28;20212;-88
2021/07/23 11:40:23;;;;;;;11.80;10.73;;;30.80;37.30;;;;;;5051212;28;20251;-91
2021/07/23 11:42:54;;;;;;;11.80;10.80;;;30.80;38.10;;;;;;5050215;28;20570;-91
2021/07/23 11:45:21;;;;;;;11.43;10.43;;;30.90;37.90;;;;;;5047313;28;20211;-91
2021/07/23 11:47:49;;;;;;;12.05;11.05;;;31.00;37.80;;;;;;5049839;28;20208;-91
2021/07/23 11:50:25;;;;;;;11.93;10.73;;;31.20;36.40;;;;;;5047993;28;20180;-91
2021/07/23 11:53:00;;;;;;;13.27;11.98;;;31.70;36.00;;;;;;5046685;28;20568;-91
2021/07/23 11:55:40;;;;;;;13.00;11.88;;;31.30;36.40;;;;;;5050797;28;20894;-91
2021/07/23 11:58:07;;;;;;;11.52;10.45;;;31.00;36.10;;;;;;5039393;28;20212;-91
2021/07/23 12:00:34;;;;;;;12.27;11.20;;;31.20;36.40;;;;;;5043437;28;20192;-90
2021/07/23 12:03:15;;;;;;;11.93;10.88;;;31.60;36.70;;;;;;5042587;28;20190;-90
2021/07/23 12:05:41;;;;;;;12.07;10.98;;;31.90;36.30;;;;;;5049623;28;20185;-90
2021/07/23 12:08:07;;;;;;;12.35;11.15;;;31.90;36.60;;;;;;5030035;28;20215;-90
2021/07/23 12:10:33;;;;;;;12.55;11.40;;;32.40;36.10;;;;;;5044854;28;20193;-90
2021/07/23 12:13:13;;;;;;;12.93;11.60;;;32.50;36.40;;;;;;5048226;28;20177;-90
2021/07/23 12:15:44;;;;;;;12.32;11.32;;;32.50;36.00;;;;;;5045543;28;20183;-91
2021/07/23 12:18:16;;;;;;;12.13;11.18;;;32.60;35.00;;;;;;5046796;28;20719;-90
2021/07/23 12:20:41;;;;;;;12.05;11.15;;;32.60;35.50;;;;;;5045646;28;20185;-91
2021/07/23 12:23:07;;;;;;;12.30;11.20;;;32.30;35.00;;;;;;5042757;28;20197;-90
2021/07/23 12:25:44;;;;;;;13.55;12.23;;;32.50;35.50;;;;;;5031685;28;20196;-90
2021/07/23 12:28:14;;;;;;;12.18;11.20;;;32.60;34.30;;;;;;5050383;28;20223;-91